createdAt,value
2022-08-22T00:01:35.250Z,101748.97
2022-08-22T00:02:46.132Z,101764.69
2022-08-22T00:02:46.510Z,101767.56
2022-08-22T00:04:33.329Z,101741.84
2022-08-22T00:07:36.203Z,101746.13
2022-08-22T00:10:25.133Z,101746.59
2022-08-22T00:13:27.804Z,101743.31
2022-08-22T00:16:13.564Z,101746.75
2022-08-22T00:19:12.221Z,101751.59
2022-08-22T00:21:53.133Z,101749.81
2022-08-22T00:24:58.868Z,101746.50
2022-08-22T00:27:45.154Z,101743.78
2022-08-22T00:30:17.378Z,101744.00
2022-08-22T00:32:59.277Z,101741.53
2022-08-22T00:36:03.669Z,101749.31
2022-08-22T00:38:38.820Z,101750.03
2022-08-22T00:41:17.717Z,101747.53
2022-08-22T00:44:17.440Z,101741.72
2022-08-22T00:47:11.240Z,101750.13
2022-08-22T00:50:07.849Z,101759.00
2022-08-22T00:53:02.124Z,101754.84
2022-08-22T00:55:41.004Z,101757.44
2022-08-22T00:58:51.694Z,101762.53
2022-08-22T01:01:30.336Z,101757.53
2022-08-22T01:04:53.006Z,101758.00
2022-08-22T01:07:42.879Z,101760.13
2022-08-22T01:10:50.132Z,101756.81
2022-08-22T01:13:39.775Z,101755.16
2022-08-22T01:17:02.455Z,101761.44
2022-08-22T01:20:28.336Z,101764.84
2022-08-22T01:23:29.199Z,101756.31
2022-08-22T01:26:41.090Z,101755.25
2022-08-22T01:29:54.237Z,101755.47
2022-08-22T01:32:56.796Z,101766.59
2022-08-22T01:35:56.501Z,101752.75
2022-08-22T01:38:51.642Z,101765.75
2022-08-22T01:41:57.383Z,101768.47
2022-08-22T01:44:38.934Z,101759.97
2022-08-22T01:47:27.129Z,101759.13
2022-08-22T01:50:00.527Z,101759.13
2022-08-22T01:52:45.037Z,101760.78
2022-08-22T01:55:29.843Z,101754.88
2022-08-22T01:58:01.776Z,101753.69
2022-08-22T02:00:47.560Z,101760.56
2022-08-22T02:04:03.109Z,101756.78
2022-08-22T02:06:51.562Z,101759.03
2022-08-22T02:09:42.015Z,101751.00
2022-08-22T02:12:24.271Z,101753.13
2022-08-22T02:15:15.523Z,101757.75
2022-08-22T02:18:06.839Z,101752.53
2022-08-22T02:20:48.711Z,101747.31
2022-08-22T02:23:44.080Z,101745.88
2022-08-22T02:26:19.235Z,101748.84
2022-08-22T02:28:58.487Z,101742.81
2022-08-22T02:31:45.392Z,101735.09
2022-08-22T02:34:32.434Z,101747.66
2022-08-22T02:37:22.035Z,101752.50
2022-08-22T02:40:15.149Z,101742.06
2022-08-22T02:42:48.170Z,101735.44
2022-08-22T02:45:38.822Z,101736.50
2022-08-22T02:48:17.227Z,101728.19
2022-08-22T02:51:01.841Z,101743.91
2022-08-22T02:53:53.007Z,101742.94
2022-08-22T02:56:34.989Z,101737.88
2022-08-22T02:59:27.163Z,101736.81
2022-08-22T03:01:56.436Z,101740.00
2022-08-22T03:04:43.432Z,101742.72
2022-08-22T03:07:26.475Z,101735.63
2022-08-22T03:10:26.388Z,101726.84
2022-08-22T03:13:07.221Z,101728.50
2022-08-22T03:16:03.276Z,101731.84
2022-08-22T03:19:02.539Z,101731.22
2022-08-22T03:21:37.288Z,101732.53
2022-08-22T03:24:35.281Z,101725.19
2022-08-22T03:27:33.032Z,101722.84
2022-08-22T03:30:44.904Z,101720.97
2022-08-22T03:33:31.257Z,101715.53
2022-08-22T03:36:22.636Z,101714.69
2022-08-22T03:39:08.829Z,101717.19
2022-08-22T03:42:16.058Z,101714.81
2022-08-22T03:45:07.196Z,101714.22
2022-08-22T03:48:25.876Z,101704.41
2022-08-22T03:51:20.669Z,101698.38
2022-08-22T03:54:21.807Z,101701.31
2022-08-22T03:57:52.012Z,101704.28
2022-08-22T04:00:36.133Z,101710.88
2022-08-22T04:03:35.882Z,101712.78
2022-08-22T04:06:25.708Z,101714.44
2022-08-22T04:09:34.298Z,101705.81
2022-08-22T04:12:55.455Z,101710.28
2022-08-22T04:15:41.217Z,101711.94
2022-08-22T04:19:11.410Z,101710.66
2022-08-22T04:22:04.517Z,101707.94
2022-08-22T04:24:55.173Z,101706.06
2022-08-22T04:27:38.284Z,101715.88
2022-08-22T04:30:26.740Z,101715.59
2022-08-22T04:33:25.712Z,101716.44
2022-08-22T04:36:10.134Z,101718.09
2022-08-22T04:38:54.777Z,101728.16
2022-08-22T04:42:16.015Z,101732.75
2022-08-22T04:45:23.682Z,101726.84
2022-08-22T04:48:34.707Z,101721.41
2022-08-22T04:51:12.821Z,101724.50
2022-08-22T04:54:14.990Z,101733.50
2022-08-22T04:57:09.271Z,101731.84
2022-08-22T04:59:37.040Z,101723.44
2022-08-22T05:02:11.239Z,101731.38
2022-08-22T05:05:05.452Z,101727.97
2022-08-22T05:07:47.202Z,101728.19
2022-08-22T05:10:23.247Z,101728.78
2022-08-22T05:13:01.178Z,101735.75
2022-08-22T05:15:36.920Z,101734.09
2022-08-22T05:18:23.834Z,101727.13
2022-08-22T05:21:02.237Z,101736.34
2022-08-22T05:23:43.184Z,101725.47
2022-08-22T05:26:13.087Z,101722.53
2022-08-22T05:28:52.962Z,101730.44
2022-08-22T05:31:40.434Z,101741.34
2022-08-22T05:34:33.130Z,101745.72
2022-08-22T05:37:26.776Z,101749.25
2022-08-22T05:40:01.084Z,101756.34
2022-08-22T05:42:37.429Z,101765.94
2022-08-22T05:45:11.570Z,101763.81
2022-08-22T05:47:53.920Z,101767.16
2022-08-22T05:50:35.013Z,101772.00
2022-08-22T05:53:34.773Z,101770.47
2022-08-22T05:56:12.620Z,101762.69
2022-08-22T05:58:39.718Z,101757.59
2022-08-22T06:01:21.418Z,101759.63
2022-08-22T06:04:22.903Z,101753.97
2022-08-22T06:06:59.851Z,101761.06
2022-08-22T06:09:46.601Z,101761.19
2022-08-22T06:12:20.177Z,101762.38
2022-08-22T06:15:21.112Z,101776.00
2022-08-22T06:17:55.519Z,101772.22
2022-08-22T06:20:56.836Z,101774.00
2022-08-22T06:23:43.591Z,101786.31
2022-08-22T06:26:20.375Z,101780.19
2022-08-22T06:28:54.474Z,101779.59
2022-08-22T06:31:34.612Z,101778.28
2022-08-22T06:34:29.312Z,101789.91
2022-08-22T06:37:01.828Z,101788.59
2022-08-22T06:39:34.592Z,101793.13
2022-08-22T06:42:05.185Z,101790.66
2022-08-22T06:44:44.280Z,101791.84
2022-08-22T06:47:23.266Z,101783.81
2022-08-22T06:49:59.825Z,101795.97
2022-08-22T06:52:30.761Z,101795.88
2022-08-22T06:55:05.695Z,101790.53
2022-08-22T06:58:03.069Z,101797.28
2022-08-22T07:00:34.628Z,101794.44
2022-08-22T07:03:15.812Z,101799.06
2022-08-22T07:05:43.644Z,101805.81
2022-08-22T07:08:14.513Z,101799.66
2022-08-22T07:10:45.206Z,101793.25
2022-08-22T07:13:17.679Z,101802.84
2022-08-22T07:15:54.884Z,101796.09
2022-08-22T07:18:28.483Z,101804.03
2022-08-22T07:21:02.844Z,101800.09
2022-08-22T07:23:37.107Z,101792.28
2022-08-22T07:26:28.273Z,101791.06
2022-08-22T07:29:34.092Z,101780.25
2022-08-22T07:32:20.380Z,101787.31
2022-08-22T07:35:21.584Z,101784.78
2022-08-22T07:37:57.662Z,101781.41
2022-08-22T07:40:55.646Z,101780.41
2022-08-22T07:43:43.369Z,101781.00
2022-08-22T07:46:47.973Z,101776.63
2022-08-22T07:49:57.661Z,101767.78
2022-08-22T07:52:26.707Z,101774.53
2022-08-22T07:55:04.796Z,101768.19
2022-08-22T07:57:40.923Z,101766.03
2022-08-22T08:00:16.963Z,101763.09
2022-08-22T08:02:55.729Z,101758.56
2022-08-22T08:05:27.387Z,101750.75
2022-08-22T08:07:56.945Z,101753.94
2022-08-22T08:10:32.530Z,101749.13
2022-08-22T08:13:05.421Z,101745.09
2022-08-22T08:15:36.947Z,101743.47
2022-08-22T08:18:11.279Z,101735.81
2022-08-22T08:20:38.527Z,101735.81
2022-08-22T08:23:10.023Z,101733.09
2022-08-22T08:26:04.248Z,101733.31
2022-08-22T08:28:34.868Z,101730.81
2022-08-22T08:31:22.985Z,101728.59
2022-08-22T08:33:58.695Z,101731.44
2022-08-22T08:37:13.974Z,101725.41
2022-08-22T08:39:50.645Z,101731.00
2022-08-22T08:43:11.042Z,101724.44
2022-08-22T08:46:15.018Z,101728.03
2022-08-22T08:49:15.948Z,101719.53
2022-08-22T08:52:07.925Z,101719.00
2022-08-22T08:55:19.620Z,101720.34
2022-08-22T08:58:43.259Z,101724.88
2022-08-22T09:01:36.006Z,101728.09
2022-08-22T09:04:53.992Z,101717.97
2022-08-22T09:07:51.257Z,101724.28
2022-08-22T09:10:57.146Z,101724.72
2022-08-22T09:13:58.180Z,101724.50
2022-08-22T09:16:58.631Z,101726.59
2022-08-22T09:19:59.950Z,101715.81
2022-08-22T09:23:23.430Z,101720.00
2022-08-22T09:26:12.807Z,101717.91
2022-08-22T09:29:10.762Z,101709.94
2022-08-22T09:32:00.285Z,101713.25
2022-08-22T09:34:49.146Z,101707.84
2022-08-22T09:37:30.735Z,101702.16
2022-08-22T09:43:21.303Z,101695.69
2022-08-22T09:46:18.565Z,101699.91
2022-08-22T09:49:14.552Z,101695.69
2022-08-22T09:52:42.687Z,101694.56
2022-08-22T09:55:41.012Z,101687.06
2022-08-22T09:58:30.957Z,101687.13
2022-08-22T10:01:10.997Z,101682.97
2022-08-22T10:04:14.524Z,101683.78
2022-08-22T10:07:11.194Z,101681.94
2022-08-22T10:10:09.138Z,101681.22
2022-08-22T10:13:10.233Z,101680.69
2022-08-22T10:15:57.508Z,101675.47
2022-08-22T10:19:26.177Z,101674.25
2022-08-22T10:22:41.502Z,101678.03
2022-08-22T10:25:32.257Z,101670.44
2022-08-22T10:28:32.485Z,101659.94
2022-08-22T10:31:20.832Z,101665.69
2022-08-22T10:34:12.527Z,101656.06
2022-08-22T10:37:10.343Z,101651.88
2022-08-22T10:39:50.186Z,101653.16
2022-08-22T10:42:35.173Z,101652.44
2022-08-22T10:45:35.917Z,101652.13
2022-08-22T10:48:10.471Z,101646.00
2022-08-22T10:50:49.228Z,101644.25
2022-08-22T10:53:48.316Z,101636.31
2022-08-22T10:56:32.324Z,101641.66
2022-08-22T10:59:39.219Z,101638.03
2022-08-22T11:02:35.427Z,101635.63
2022-08-22T11:05:35.006Z,101641.47
2022-08-22T11:08:37.903Z,101646.88
2022-08-22T11:11:24.887Z,101644.66
2022-08-22T11:14:50.846Z,101643.75
2022-08-22T11:18:05.996Z,101646.00
2022-08-22T11:20:54.787Z,101648.09
2022-08-22T11:24:04.080Z,101646.72
2022-08-22T11:27:12.944Z,101641.53
2022-08-22T11:30:08.175Z,101641.44
2022-08-22T11:33:05.504Z,101634.38
2022-08-22T11:35:44.495Z,101627.00
2022-08-22T11:38:37.532Z,101631.28
2022-08-22T11:41:32.597Z,101636.75
2022-08-22T11:44:19.813Z,101628.75
2022-08-22T11:46:50.675Z,101633.78
2022-08-22T11:50:10.781Z,101628.13
2022-08-22T11:52:53.138Z,101628.66
2022-08-22T11:55:34.686Z,101635.78
2022-08-22T11:58:29.326Z,101635.34
2022-08-22T12:01:17.429Z,101627.63
2022-08-22T12:04:03.293Z,101620.38
2022-08-22T12:06:50.259Z,101612.84
2022-08-22T12:09:27.440Z,101612.88
2022-08-22T12:12:11.761Z,101621.75
2022-08-22T12:14:47.240Z,101619.50
2022-08-22T12:17:55.203Z,101615.66
2022-08-22T12:20:58.428Z,101610.44
2022-08-22T12:23:43.259Z,101606.38
2022-08-22T12:26:34.117Z,101614.41
2022-08-22T12:29:44.930Z,101615.47
2022-08-22T12:32:35.502Z,101608.72
2022-08-22T12:35:29.728Z,101611.28
2022-08-22T12:38:37.865Z,101609.44
2022-08-22T12:41:48.267Z,101603.56
2022-08-22T12:44:42.332Z,101599.84
2022-08-22T12:47:23.230Z,101601.59
2022-08-22T12:50:17.787Z,101596.31
2022-08-22T12:53:11.006Z,101591.03
2022-08-22T12:56:10.281Z,101594.81
2022-08-22T12:59:22.219Z,101586.81
2022-08-22T13:01:54.673Z,101583.06
2022-08-22T13:04:33.443Z,101578.66
2022-08-22T13:07:30.133Z,101580.97
2022-08-22T13:10:25.983Z,101573.81
2022-08-22T13:12:56.834Z,101582.66
2022-08-22T13:15:53.769Z,101577.94
2022-08-22T13:18:30.749Z,101581.44
2022-08-22T13:21:04.456Z,101575.50
2022-08-22T13:23:42.953Z,101570.91
2022-08-22T13:26:32.073Z,101573.91
2022-08-22T13:29:26.996Z,101573.66
2022-08-22T13:32:01.881Z,101567.66
2022-08-22T13:34:45.117Z,101578.00
2022-08-22T13:37:24.410Z,101566.59
2022-08-22T13:39:59.580Z,101565.09
2022-08-22T13:42:31.317Z,101565.53
2022-08-22T13:45:09.782Z,101556.59
2022-08-22T13:47:49.847Z,101558.34
2022-08-22T13:50:27.552Z,101566.34
2022-08-22T13:53:11.944Z,101556.28
2022-08-22T13:55:49.460Z,101557.41
2022-08-22T13:58:28.728Z,101555.88
2022-08-22T14:01:28.373Z,101553.31
2022-08-22T14:04:32.101Z,101547.88
2022-08-22T14:07:03.698Z,101550.53
2022-08-22T14:09:42.866Z,101546.03
2022-08-22T14:12:18.815Z,101541.94
2022-08-22T14:14:55.744Z,101547.88
2022-08-22T14:17:42.520Z,101544.28
2022-08-22T14:20:31.981Z,101543.38
2022-08-22T14:23:16.352Z,101535.91
2022-08-22T14:25:44.268Z,101541.22
2022-08-22T14:28:35.523Z,101540.28
2022-08-22T14:31:13.210Z,101542.69
2022-08-22T14:33:51.201Z,101531.78
2022-08-22T14:36:25.307Z,101537.22
2022-08-22T14:39:09.495Z,101528.47
2022-08-22T14:41:59.420Z,101531.09
2022-08-22T14:44:51.789Z,101522.66
2022-08-22T14:47:55.081Z,101524.69
2022-08-22T14:50:54.915Z,101515.31
2022-08-22T14:53:25.545Z,101523.81
2022-08-22T14:56:33.694Z,101514.22
2022-08-22T14:59:12.484Z,101523.16
2022-08-22T15:02:29.283Z,101518.38
2022-08-22T15:05:05.629Z,101513.06
2022-08-22T15:07:36.444Z,101506.81
2022-08-22T15:10:32.957Z,101519.41
2022-08-22T15:13:07.779Z,101510.28
2022-08-22T15:15:53.386Z,101510.81
2022-08-22T15:18:28.767Z,101515.00
2022-08-22T15:21:27.527Z,101507.63
2022-08-22T15:23:59.876Z,101500.03
2022-08-22T15:26:38.670Z,101501.81
2022-08-22T15:29:27.832Z,101503.06
2022-08-22T15:32:01.561Z,101499.75
2022-08-22T15:34:41.789Z,101497.81
2022-08-22T15:37:20.828Z,101496.00
2022-08-22T15:40:33.707Z,101496.09
2022-08-22T15:43:36.076Z,101497.47
2022-08-22T15:46:21.248Z,101496.00
2022-08-22T15:49:06.655Z,101490.91
2022-08-22T15:52:00.826Z,101492.81
2022-08-22T15:54:46.812Z,101490.91
2022-08-22T15:57:39.868Z,101500.00
2022-08-22T16:00:45.176Z,101492.09
2022-08-22T16:03:36.166Z,101497.69
2022-08-22T16:06:08.143Z,101484.94
2022-08-22T16:08:50.376Z,101487.19
2022-08-22T16:11:39.195Z,101480.84
2022-08-22T16:14:19.060Z,101481.16
2022-08-22T16:17:03.870Z,101471.94
2022-08-22T16:19:35.740Z,101472.16
2022-08-22T16:22:06.916Z,101463.81
2022-08-22T16:24:59.308Z,101460.97
2022-08-22T16:27:27.825Z,101471.56
2022-08-22T16:30:09.338Z,101462.31
2022-08-22T16:32:37.085Z,101457.84
2022-08-22T16:35:04.567Z,101448.06
2022-08-22T16:37:47.947Z,101464.22
2022-08-22T16:40:25.775Z,101460.66
2022-08-22T16:43:17.793Z,101466.59
2022-08-22T16:45:46.160Z,101454.31
2022-08-22T16:48:32.670Z,101462.59
2022-08-22T16:51:18.651Z,101456.56
2022-08-22T16:54:13.362Z,101453.28
2022-08-22T16:57:05.482Z,101448.50
2022-08-22T17:00:08.955Z,101457.06
2022-08-22T17:03:12.207Z,101454.53
2022-08-22T17:06:14.000Z,101451.94
2022-08-22T17:09:21.848Z,101449.84
2022-08-22T17:12:29.388Z,101450.78
2022-08-22T17:15:13.948Z,101452.47
2022-08-22T17:18:21.881Z,101444.56
2022-08-22T17:21:14.605Z,101449.31
2022-08-22T17:24:31.655Z,101449.31
2022-08-22T17:27:19.604Z,101451.31
2022-08-22T17:30:23.347Z,101449.91
2022-08-22T17:33:11.231Z,101449.38
2022-08-22T17:36:36.011Z,101458.22
2022-08-22T17:39:21.728Z,101451.66
2022-08-22T17:42:23.299Z,101454.50
2022-08-22T17:45:16.001Z,101460.59
2022-08-22T17:48:00.555Z,101463.22
2022-08-22T17:50:41.605Z,101458.28
2022-08-22T17:53:51.331Z,101466.34
2022-08-22T17:56:29.367Z,101471.84
2022-08-22T17:59:25.725Z,101473.50
2022-08-22T18:02:27.938Z,101469.25
2022-08-22T18:05:13.427Z,101459.88
2022-08-22T18:11:28.206Z,101469.44
2022-08-22T18:14:21.435Z,101470.09
2022-08-22T18:16:52.386Z,101475.38
2022-08-22T18:19:37.419Z,101473.19
2022-08-22T18:22:19.263Z,101465.16
2022-08-22T18:25:02.607Z,101464.72
2022-08-22T18:27:57.995Z,101471.31
2022-08-22T18:31:02.270Z,101472.78
2022-08-22T18:33:41.308Z,101478.84
2022-08-22T18:36:23.175Z,101472.28
2022-08-22T18:39:07.475Z,101478.41
2022-08-22T18:42:03.943Z,101485.91
2022-08-22T18:44:35.104Z,101484.81
2022-08-22T18:47:21.710Z,101488.47
2022-08-22T18:49:54.054Z,101492.06
2022-08-22T18:52:27.131Z,101493.75
2022-08-22T18:55:15.627Z,101492.13
2022-08-22T18:58:11.063Z,101493.78
2022-08-22T19:01:44.896Z,101496.88
2022-08-22T19:04:34.288Z,101507.28
2022-08-22T19:07:29.821Z,101513.34
2022-08-22T19:10:54.785Z,101514.69
2022-08-22T19:14:05.585Z,101519.38
2022-08-22T19:16:47.494Z,101524.56
2022-08-22T19:20:14.640Z,101523.47
2022-08-22T19:22:42.148Z,101529.72
2022-08-22T19:25:12.450Z,101534.34
2022-08-22T19:27:44.723Z,101539.31
2022-08-22T19:30:47.417Z,101535.94
2022-08-22T19:33:38.428Z,101537.28
2022-08-22T19:36:10.829Z,101535.31
2022-08-22T19:39:08.895Z,101537.44
2022-08-22T19:41:52.659Z,101535.25
2022-08-22T19:44:19.550Z,101537.38
2022-08-22T19:47:10.831Z,101545.53
2022-08-22T19:49:54.314Z,101546.59
2022-08-22T19:52:32.795Z,101542.69
2022-08-22T19:55:19.679Z,101538.28
2022-08-22T19:57:52.649Z,101536.31
2022-08-22T20:00:43.520Z,101534.63
2022-08-22T20:03:19.340Z,101536.81
2022-08-22T20:06:43.021Z,101538.19
2022-08-22T20:09:57.301Z,101537.66
2022-08-22T20:12:33.637Z,101535.44
2022-08-22T20:15:17.784Z,101533.19
2022-08-22T20:18:11.632Z,101534.25
2022-08-22T20:20:55.588Z,101531.47
2022-08-22T20:23:31.051Z,101534.19
2022-08-22T20:25:59.499Z,101536.09
2022-08-22T20:28:47.364Z,101536.88
2022-08-22T20:31:27.214Z,101532.69
2022-08-22T20:34:02.263Z,101526.91
2022-08-22T20:36:30.366Z,101523.63
2022-08-22T20:39:11.148Z,101530.75
2022-08-22T20:41:46.570Z,101529.19
2022-08-22T20:44:30.712Z,101520.16
2022-08-22T20:47:11.023Z,101519.91
2022-08-22T20:49:48.365Z,101516.34
2022-08-22T20:52:32.181Z,101514.41
2022-08-22T20:55:13.470Z,101526.91
2022-08-22T20:57:55.822Z,101520.84
2022-08-22T21:00:28.599Z,101517.25
2022-08-22T21:03:04.293Z,101519.16
2022-08-22T21:05:37.101Z,101515.50
2022-08-22T21:08:16.095Z,101514.69
2022-08-22T21:11:02.009Z,101522.84
2022-08-22T21:13:35.420Z,101521.63
2022-08-22T21:16:18.981Z,101518.88
2022-08-22T21:18:52.764Z,101518.88
2022-08-22T21:21:31.656Z,101524.03
2022-08-22T21:24:03.626Z,101514.19
2022-08-22T21:26:36.909Z,101513.56
2022-08-22T21:29:12.441Z,101510.25
2022-08-22T21:31:59.120Z,101510.78
2022-08-22T21:34:43.143Z,101514.84
2022-08-22T21:37:23.164Z,101504.44
2022-08-22T21:40:01.224Z,101506.09
2022-08-22T21:42:34.667Z,101507.16
2022-08-22T21:45:27.748Z,101514.53
2022-08-22T21:47:54.866Z,101506.50
2022-08-22T21:50:24.453Z,101504.53
2022-08-22T21:52:54.408Z,101508.22
2022-08-22T21:55:42.955Z,101513.50
2022-08-22T21:58:35.143Z,101500.28
2022-08-22T22:01:28.564Z,101501.81
2022-08-22T22:03:56.731Z,101503.16
2022-08-22T22:06:23.656Z,101512.78
2022-08-22T22:08:50.892Z,101509.50
2022-08-22T22:11:18.404Z,101509.19
2022-08-22T22:13:46.965Z,101502.69
2022-08-22T22:16:13.985Z,101503.47
2022-08-22T22:18:41.181Z,101496.38
2022-08-22T22:21:08.704Z,101496.03
2022-08-22T22:23:35.780Z,101501.81
2022-08-22T22:26:05.365Z,101505.31
2022-08-22T22:28:38.562Z,101502.22
2022-08-22T22:31:06.367Z,101506.72
2022-08-22T22:33:40.835Z,101504.41
2022-08-22T22:36:21.773Z,101503.91
2022-08-22T22:38:51.679Z,101505.25
2022-08-22T22:41:21.099Z,101502.75
2022-08-22T22:43:48.007Z,101500.59
2022-08-22T22:46:14.995Z,101498.16
2022-08-22T22:48:41.935Z,101514.00
2022-08-22T22:51:11.163Z,101508.22
2022-08-22T22:53:42.717Z,101519.47
2022-08-22T22:56:17.645Z,101510.78
2022-08-22T22:58:49.059Z,101513.50
2022-08-22T23:01:21.572Z,101504.84
2022-08-22T23:03:53.897Z,101513.50
2022-08-22T23:06:24.139Z,101515.84
2022-08-22T23:08:52.702Z,101513.38
2022-08-22T23:11:26.009Z,101506.91
2022-08-22T23:13:53.714Z,101512.84
2022-08-22T23:16:27.824Z,101514.22
2022-08-22T23:18:56.023Z,101511.41
2022-08-22T23:21:28.129Z,101518.84
2022-08-22T23:23:57.935Z,101514.47
2022-08-22T23:26:25.728Z,101512.03
2022-08-22T23:28:52.928Z,101511.28
2022-08-22T23:31:38.715Z,101507.97
2022-08-22T23:34:14.087Z,101510.47
2022-08-22T23:36:46.116Z,101508.56
2022-08-22T23:39:15.036Z,101507.84
2022-08-22T23:41:44.754Z,101513.81
2022-08-22T23:44:17.988Z,101510.59
2022-08-22T23:46:45.443Z,101502.06
2022-08-22T23:49:14.270Z,101500.75
2022-08-22T23:51:41.896Z,101493.06
2022-08-22T23:54:09.491Z,101490.09
2022-08-22T23:56:43.788Z,101492.22
2022-08-22T23:59:17.389Z,101492.41
